sensor_id;sensor_type;location;lat;lon;timestamp;temperature;humidity
5061;DHT22;2549;52.128;21.068;2023-06-22T00:00:02;24.10;99.90
5061;DHT22;2549;52.128;21.068;2023-06-22T00:02:35;24.10;99.90
5061;DHT22;2549;52.128;21.068;2023-06-22T00:05:02;24.00;99.90
5061;DHT22;2549;52.128;21.068;2023-06-22T00:07:29;24.00;99.90
5061;DHT22;2549;52.128;21.068;2023-06-22T00:09:55;24.00;99.90
5061;DHT22;2549;52.128;21.068;2023-06-22T00:12:22;24.00;99.90
5061;DHT22;2549;52.128;21.068;2023-06-22T00:14:49;24.00;99.90
5061;DHT22;2549;52.128;21.068;2023-06-22T00:17:16;24.00;99.90
5061;DHT22;2549;52.128;21.068;2023-06-22T00:19:43;24.00;99.90
5061;DHT22;2549;52.128;21.068;2023-06-22T00:22:09;24.00;99.90
5061;DHT22;2549;52.128;21.068;2023-06-22T00:24:36;23.90;99.90
5061;DHT22;2549;52.128;21.068;2023-06-22T00:27:03;23.90;99.90
5061;DHT22;2549;52.128;21.068;2023-06-22T00:29:31;23.90;99.90
5061;DHT22;2549;52.128;21.068;2023-06-22T00:31:58;23.90;99.90
5061;DHT22;2549;52.128;21.068;2023-06-22T00:34:25;23.90;99.90
5061;DHT22;2549;52.128;21.068;2023-06-22T00:36:52;23.90;99.90
5061;DHT22;2549;52.128;21.068;2023-06-22T00:39:19;23.80;99.90
5061;DHT22;2549;52.128;21.068;2023-06-22T00:41:46;23.80;99.90
5061;DHT22;2549;52.128;21.068;2023-06-22T00:44:12;23.80;99.90
5061;DHT22;2549;52.128;21.068;2023-06-22T00:46:40;23.80;99.90
5061;DHT22;2549;52.128;21.068;2023-06-22T00:49:06;23.80;99.90
5061;DHT22;2549;52.128;21.068;2023-06-22T00:51:34;23.70;99.90
5061;DHT22;2549;52.128;21.068;2023-06-22T00:54:05;23.70;99.90
5061;DHT22;2549;52.128;21.068;2023-06-22T00:56:33;23.70;99.90
5061;DHT22;2549;52.128;21.068;2023-06-22T00:59:00;23.70;99.90
5061;DHT22;2549;52.128;21.068;2023-06-22T01:01:30;23.60;99.90
5061;DHT22;2549;52.128;21.068;2023-06-22T01:03:57;23.60;99.90
5061;DHT22;2549;52.128;21.068;2023-06-22T01:06:35;23.60;99.90
5061;DHT22;2549;52.128;21.068;2023-06-22T01:09:27;23.60;99.90
5061;DHT22;2549;52.128;21.068;2023-06-22T01:11:57;23.60;99.90
5061;DHT22;2549;52.128;21.068;2023-06-22T01:14:41;23.60;99.90
5061;DHT22;2549;52.128;21.068;2023-06-22T01:17:09;23.60;99.90
5061;DHT22;2549;52.128;21.068;2023-06-22T01:19:51;23.60;99.90
5061;DHT22;2549;52.128;21.068;2023-06-22T01:22:30;23.60;99.90
5061;DHT22;2549;52.128;21.068;2023-06-22T01:25:11;23.50;99.90
5061;DHT22;2549;52.128;21.068;2023-06-22T01:28:05;23.50;99.90
5061;DHT22;2549;52.128;21.068;2023-06-22T01:30:42;23.50;99.90
5061;DHT22;2549;52.128;21.068;2023-06-22T01:33:13;23.50;99.90
5061;DHT22;2549;52.128;21.068;2023-06-22T01:35:41;23.50;99.90
5061;DHT22;2549;52.128;21.068;2023-06-22T01:38:09;23.40;99.90
5061;DHT22;2549;52.128;21.068;2023-06-22T01:40:36;23.50;99.90
5061;DHT22;2549;52.128;21.068;2023-06-22T01:43:04;23.40;99.90
5061;DHT22;2549;52.128;21.068;2023-06-22T01:45:31;23.30;99.90
5061;DHT22;2549;52.128;21.068;2023-06-22T01:47:58;23.40;99.90
5061;DHT22;2549;52.128;21.068;2023-06-22T01:50:26;23.40;99.90
5061;DHT22;2549;52.128;21.068;2023-06-22T01:52:53;23.30;99.90
5061;DHT22;2549;52.128;21.068;2023-06-22T01:55:20;23.30;99.90
5061;DHT22;2549;52.128;21.068;2023-06-22T01:57:47;23.30;99.90
5061;DHT22;2549;52.128;21.068;2023-06-22T02:00:18;23.20;99.90
5061;DHT22;2549;52.128;21.068;2023-06-22T02:03:05;23.20;99.90
5061;DHT22;2549;52.128;21.068;2023-06-22T02:05:39;23.20;99.90
5061;DHT22;2549;52.128;21.068;2023-06-22T02:08:15;23.30;99.90
5061;DHT22;2549;52.128;21.068;2023-06-22T02:10:45;23.20;99.90
5061;DHT22;2549;52.128;21.068;2023-06-22T02:13:13;23.20;99.90
5061;DHT22;2549;52.128;21.068;2023-06-22T02:15:41;23.20;99.90
5061;DHT22;2549;52.128;21.068;2023-06-22T02:18:08;23.20;99.90
5061;DHT22;2549;52.128;21.068;2023-06-22T02:20:39;23.20;99.90
5061;DHT22;2549;52.128;21.068;2023-06-22T02:23:07;23.20;99.90
5061;DHT22;2549;52.128;21.068;2023-06-22T02:25:34;23.30;99.90
5061;DHT22;2549;52.128;21.068;2023-06-22T02:28:02;23.30;99.90
5061;DHT22;2549;52.128;21.068;2023-06-22T02:30:29;23.30;99.90
5061;DHT22;2549;52.128;21.068;2023-06-22T02:32:57;23.30;99.90
5061;DHT22;2549;52.128;21.068;2023-06-22T02:35:27;23.30;99.90
5061;DHT22;2549;52.128;21.068;2023-06-22T02:37:59;23.40;99.90
5061;DHT22;2549;52.128;21.068;2023-06-22T02:40:27;23.40;99.90
5061;DHT22;2549;52.128;21.068;2023-06-22T02:42:55;23.40;99.90
5061;DHT22;2549;52.128;21.068;2023-06-22T02:45:21;23.50;99.90
5061;DHT22;2549;52.128;21.068;2023-06-22T02:47:48;23.50;99.90
5061;DHT22;2549;52.128;21.068;2023-06-22T02:50:15;23.50;99.90
5061;DHT22;2549;52.128;21.068;2023-06-22T02:52:42;23.60;99.90
5061;DHT22;2549;52.128;21.068;2023-06-22T02:55:09;23.60;99.90
5061;DHT22;2549;52.128;21.068;2023-06-22T02:57:36;23.60;99.90
5061;DHT22;2549;52.128;21.068;2023-06-22T03:00:04;23.60;99.90
5061;DHT22;2549;52.128;21.068;2023-06-22T03:02:47;23.70;99.90
5061;DHT22;2549;52.128;21.068;2023-06-22T03:05:15;23.70;99.90
5061;DHT22;2549;52.128;21.068;2023-06-22T03:07:45;23.70;99.90
5061;DHT22;2549;52.128;21.068;2023-06-22T03:10:14;23.70;99.90
5061;DHT22;2549;52.128;21.068;2023-06-22T03:12:42;23.70;99.90
5061;DHT22;2549;52.128;21.068;2023-06-22T03:15:11;23.60;99.90
5061;DHT22;2549;52.128;21.068;2023-06-22T03:17:39;23.60;99.90
5061;DHT22;2549;52.128;21.068;2023-06-22T03:20:08;23.60;99.90
5061;DHT22;2549;52.128;21.068;2023-06-22T03:22:41;23.60;99.90
5061;DHT22;2549;52.128;21.068;2023-06-22T03:25:09;23.60;99.90
5061;DHT22;2549;52.128;21.068;2023-06-22T03:27:42;23.60;99.90
5061;DHT22;2549;52.128;21.068;2023-06-22T03:30:12;23.60;99.90
5061;DHT22;2549;52.128;21.068;2023-06-22T03:32:39;23.60;99.90
5061;DHT22;2549;52.128;21.068;2023-06-22T03:35:06;23.60;99.90
5061;DHT22;2549;52.128;21.068;2023-06-22T03:37:33;23.60;99.90
5061;DHT22;2549;52.128;21.068;2023-06-22T03:40:00;23.60;99.90
5061;DHT22;2549;52.128;21.068;2023-06-22T03:42:27;23.60;99.90
5061;DHT22;2549;52.128;21.068;2023-06-22T03:44:54;23.60;99.90
5061;DHT22;2549;52.128;21.068;2023-06-22T03:47:21;23.60;99.90
5061;DHT22;2549;52.128;21.068;2023-06-22T03:49:48;23.60;99.90
5061;DHT22;2549;52.128;21.068;2023-06-22T03:52:15;23.60;99.90
5061;DHT22;2549;52.128;21.068;2023-06-22T03:54:42;23.70;99.90
5061;DHT22;2549;52.128;21.068;2023-06-22T03:57:09;23.70;99.90
5061;DHT22;2549;52.128;21.068;2023-06-22T03:59:36;23.70;99.90
5061;DHT22;2549;52.128;21.068;2023-06-22T04:02:03;23.60;99.90
5061;DHT22;2549;52.128;21.068;2023-06-22T04:04:30;23.60;99.90
5061;DHT22;2549;52.128;21.068;2023-06-22T04:06:57;23.60;99.90
5061;DHT22;2549;52.128;21.068;2023-06-22T04:09:24;23.70;99.90
5061;DHT22;2549;52.128;21.068;2023-06-22T04:11:51;23.70;99.90
5061;DHT22;2549;52.128;21.068;2023-06-22T04:14:18;23.80;99.90
5061;DHT22;2549;52.128;21.068;2023-06-22T04:16:45;23.80;99.90
5061;DHT22;2549;52.128;21.068;2023-06-22T04:19:12;23.80;99.90
5061;DHT22;2549;52.128;21.068;2023-06-22T04:21:43;23.80;99.90
5061;DHT22;2549;52.128;21.068;2023-06-22T04:24:15;23.80;99.90
5061;DHT22;2549;52.128;21.068;2023-06-22T04:26:42;23.80;99.90
5061;DHT22;2549;52.128;21.068;2023-06-22T04:29:11;23.90;99.90
5061;DHT22;2549;52.128;21.068;2023-06-22T04:31:39;23.90;99.90
5061;DHT22;2549;52.128;21.068;2023-06-22T04:34:07;23.90;99.90
5061;DHT22;2549;52.128;21.068;2023-06-22T04:36:39;23.90;99.90
5061;DHT22;2549;52.128;21.068;2023-06-22T04:39:11;23.90;99.90
5061;DHT22;2549;52.128;21.068;2023-06-22T04:41:39;23.90;99.90
5061;DHT22;2549;52.128;21.068;2023-06-22T04:44:14;23.90;99.90
5061;DHT22;2549;52.128;21.068;2023-06-22T04:47:02;24.00;99.90
5061;DHT22;2549;52.128;21.068;2023-06-22T04:49:30;24.00;99.90
5061;DHT22;2549;52.128;21.068;2023-06-22T04:52:04;24.10;99.90
5061;DHT22;2549;52.128;21.068;2023-06-22T04:54:31;24.10;99.90
5061;DHT22;2549;52.128;21.068;2023-06-22T04:57:02;24.20;99.90
5061;DHT22;2549;52.128;21.068;2023-06-22T04:59:30;24.20;99.90
5061;DHT22;2549;52.128;21.068;2023-06-22T05:01:59;24.20;99.90
5061;DHT22;2549;52.128;21.068;2023-06-22T05:04:27;24.30;99.90
5061;DHT22;2549;52.128;21.068;2023-06-22T05:07:03;24.30;99.90
5061;DHT22;2549;52.128;21.068;2023-06-22T05:09:30;24.30;99.90
5061;DHT22;2549;52.128;21.068;2023-06-22T05:11:57;24.30;99.90
5061;DHT22;2549;52.128;21.068;2023-06-22T05:14:24;24.20;99.90
5061;DHT22;2549;52.128;21.068;2023-06-22T05:16:51;24.20;99.90
5061;DHT22;2549;52.128;21.068;2023-06-22T05:19:25;24.20;99.90
5061;DHT22;2549;52.128;21.068;2023-06-22T05:21:58;24.20;99.90
5061;DHT22;2549;52.128;21.068;2023-06-22T05:24:25;24.20;99.90
5061;DHT22;2549;52.128;21.068;2023-06-22T05:26:51;24.20;99.90
5061;DHT22;2549;52.128;21.068;2023-06-22T05:29:18;24.20;99.90
5061;DHT22;2549;52.128;21.068;2023-06-22T05:31:45;24.20;99.90
5061;DHT22;2549;52.128;21.068;2023-06-22T05:34:12;24.20;99.90
5061;DHT22;2549;52.128;21.068;2023-06-22T05:36:39;24.20;99.90
5061;DHT22;2549;52.128;21.068;2023-06-22T05:39:14;24.20;99.90
5061;DHT22;2549;52.128;21.068;2023-06-22T05:41:41;24.20;99.90
5061;DHT22;2549;52.128;21.068;2023-06-22T05:44:10;24.30;99.90
5061;DHT22;2549;52.128;21.068;2023-06-22T05:46:40;24.30;99.90
5061;DHT22;2549;52.128;21.068;2023-06-22T05:49:12;24.20;99.90
5061;DHT22;2549;52.128;21.068;2023-06-22T05:51:40;24.30;99.90
5061;DHT22;2549;52.128;21.068;2023-06-22T05:54:07;24.30;99.90
5061;DHT22;2549;52.128;21.068;2023-06-22T05:56:35;24.30;99.90
5061;DHT22;2549;52.128;21.068;2023-06-22T05:59:03;24.30;99.90
5061;DHT22;2549;52.128;21.068;2023-06-22T06:01:30;24.30;99.90
5061;DHT22;2549;52.128;21.068;2023-06-22T06:04:03;24.30;99.90
5061;DHT22;2549;52.128;21.068;2023-06-22T06:06:31;24.20;99.90
5061;DHT22;2549;52.128;21.068;2023-06-22T06:08:58;24.30;99.90
5061;DHT22;2549;52.128;21.068;2023-06-22T06:11:26;24.30;99.90
5061;DHT22;2549;52.128;21.068;2023-06-22T06:13:53;24.30;99.90
5061;DHT22;2549;52.128;21.068;2023-06-22T06:16:20;24.30;99.90
5061;DHT22;2549;52.128;21.068;2023-06-22T06:18:47;24.30;99.90
5061;DHT22;2549;52.128;21.068;2023-06-22T06:21:16;24.30;99.90
5061;DHT22;2549;52.128;21.068;2023-06-22T06:23:43;24.40;99.90
5061;DHT22;2549;52.128;21.068;2023-06-22T06:26:10;24.40;99.90
5061;DHT22;2549;52.128;21.068;2023-06-22T06:28:37;24.40;99.90
5061;DHT22;2549;52.128;21.068;2023-06-22T06:31:04;24.50;99.90
5061;DHT22;2549;52.128;21.068;2023-06-22T06:33:34;24.60;99.90
5061;DHT22;2549;52.128;21.068;2023-06-22T06:36:01;24.60;99.90
5061;DHT22;2549;52.128;21.068;2023-06-22T06:38:30;24.60;99.90
5061;DHT22;2549;52.128;21.068;2023-06-22T06:40:58;24.60;99.90
5061;DHT22;2549;52.128;21.068;2023-06-22T06:43:25;24.70;99.90
5061;DHT22;2549;52.128;21.068;2023-06-22T06:45:52;24.60;99.90
5061;DHT22;2549;52.128;21.068;2023-06-22T06:48:19;24.70;99.90
5061;DHT22;2549;52.128;21.068;2023-06-22T06:50:46;24.80;99.90
5061;DHT22;2549;52.128;21.068;2023-06-22T06:53:13;24.90;99.90
5061;DHT22;2549;52.128;21.068;2023-06-22T06:55:40;24.90;99.90
5061;DHT22;2549;52.128;21.068;2023-06-22T06:58:07;25.00;99.90
5061;DHT22;2549;52.128;21.068;2023-06-22T07:00:36;25.00;99.90
5061;DHT22;2549;52.128;21.068;2023-06-22T07:03:03;25.00;99.90
5061;DHT22;2549;52.128;21.068;2023-06-22T07:05:31;25.10;99.90
5061;DHT22;2549;52.128;21.068;2023-06-22T07:07:57;25.10;99.90
5061;DHT22;2549;52.128;21.068;2023-06-22T07:10:24;25.20;99.90
5061;DHT22;2549;52.128;21.068;2023-06-22T07:12:52;25.20;99.90
5061;DHT22;2549;52.128;21.068;2023-06-22T07:15:18;25.20;99.90
5061;DHT22;2549;52.128;21.068;2023-06-22T07:17:45;25.20;99.90
5061;DHT22;2549;52.128;21.068;2023-06-22T07:20:14;25.30;99.90
5061;DHT22;2549;52.128;21.068;2023-06-22T07:22:43;25.30;99.90
5061;DHT22;2549;52.128;21.068;2023-06-22T07:25:11;25.30;99.90
5061;DHT22;2549;52.128;21.068;2023-06-22T07:27:56;25.40;99.90
5061;DHT22;2549;52.128;21.068;2023-06-22T07:30:22;25.40;99.90
5061;DHT22;2549;52.128;21.068;2023-06-22T07:32:50;25.50;99.90
5061;DHT22;2549;52.128;21.068;2023-06-22T07:35:17;25.70;99.90
5061;DHT22;2549;52.128;21.068;2023-06-22T07:37:44;25.70;99.90
5061;DHT22;2549;52.128;21.068;2023-06-22T07:40:11;25.70;99.90
5061;DHT22;2549;52.128;21.068;2023-06-22T07:42:38;25.60;99.90
5061;DHT22;2549;52.128;21.068;2023-06-22T07:45:06;25.70;99.90
5061;DHT22;2549;52.128;21.068;2023-06-22T07:47:34;25.70;99.90
5061;DHT22;2549;52.128;21.068;2023-06-22T07:50:03;25.70;99.90
5061;DHT22;2549;52.128;21.068;2023-06-22T07:52:30;25.80;99.90
5061;DHT22;2549;52.128;21.068;2023-06-22T07:54:57;25.80;99.90
5061;DHT22;2549;52.128;21.068;2023-06-22T07:57:24;25.80;99.90
5061;DHT22;2549;52.128;21.068;2023-06-22T08:00:00;25.70;99.90
5061;DHT22;2549;52.128;21.068;2023-06-22T08:02:27;25.80;99.90
5061;DHT22;2549;52.128;21.068;2023-06-22T08:04:54;25.80;99.90
5061;DHT22;2549;52.128;21.068;2023-06-22T08:07:41;25.80;99.90
5061;DHT22;2549;52.128;21.068;2023-06-22T08:10:14;25.80;99.90
5061;DHT22;2549;52.128;21.068;2023-06-22T08:12:41;25.80;99.90
5061;DHT22;2549;52.128;21.068;2023-06-22T08:15:08;25.80;99.90
5061;DHT22;2549;52.128;21.068;2023-06-22T08:17:37;25.80;99.90
5061;DHT22;2549;52.128;21.068;2023-06-22T08:20:05;25.90;99.90
5061;DHT22;2549;52.128;21.068;2023-06-22T08:22:40;25.80;99.90
5061;DHT22;2549;52.128;21.068;2023-06-22T08:25:08;25.90;99.90
5061;DHT22;2549;52.128;21.068;2023-06-22T08:27:35;25.90;99.90
5061;DHT22;2549;52.128;21.068;2023-06-22T08:30:03;25.90;99.90
5061;DHT22;2549;52.128;21.068;2023-06-22T08:32:30;25.90;99.90
5061;DHT22;2549;52.128;21.068;2023-06-22T08:34:59;25.90;99.90
5061;DHT22;2549;52.128;21.068;2023-06-22T08:37:26;26.00;99.90
5061;DHT22;2549;52.128;21.068;2023-06-22T08:39:59;26.00;99.90
5061;DHT22;2549;52.128;21.068;2023-06-22T08:42:27;26.10;99.90
5061;DHT22;2549;52.128;21.068;2023-06-22T08:44:55;26.10;99.90
5061;DHT22;2549;52.128;21.068;2023-06-22T08:47:22;26.10;99.90
5061;DHT22;2549;52.128;21.068;2023-06-22T08:49:49;26.20;99.90
5061;DHT22;2549;52.128;21.068;2023-06-22T08:52:17;26.20;99.90
5061;DHT22;2549;52.128;21.068;2023-06-22T08:54:47;26.20;99.90
5061;DHT22;2549;52.128;21.068;2023-06-22T08:57:14;26.20;99.90
5061;DHT22;2549;52.128;21.068;2023-06-22T08:59:42;26.20;99.90
5061;DHT22;2549;52.128;21.068;2023-06-22T09:02:09;26.30;99.90
5061;DHT22;2549;52.128;21.068;2023-06-22T09:04:35;26.30;99.10
5061;DHT22;2549;52.128;21.068;2023-06-22T09:07:04;26.30;98.90
5061;DHT22;2549;52.128;21.068;2023-06-22T09:09:31;26.40;99.80
5061;DHT22;2549;52.128;21.068;2023-06-22T09:11:58;26.40;99.90
5061;DHT22;2549;52.128;21.068;2023-06-22T09:14:24;26.50;99.90
5061;DHT22;2549;52.128;21.068;2023-06-22T09:16:51;26.50;99.70
5061;DHT22;2549;52.128;21.068;2023-06-22T09:19:18;26.50;99.50
5061;DHT22;2549;52.128;21.068;2023-06-22T09:21:45;26.50;99.80
5061;DHT22;2549;52.128;21.068;2023-06-22T09:24:12;26.50;99.40
5061;DHT22;2549;52.128;21.068;2023-06-22T09:26:39;26.50;99.00
5061;DHT22;2549;52.128;21.068;2023-06-22T09:29:06;26.60;99.00
5061;DHT22;2549;52.128;21.068;2023-06-22T09:31:33;26.60;98.20
5061;DHT22;2549;52.128;21.068;2023-06-22T09:34:00;26.60;98.40
5061;DHT22;2549;52.128;21.068;2023-06-22T09:36:27;26.60;97.40
5061;DHT22;2549;52.128;21.068;2023-06-22T09:38:53;26.60;97.30
5061;DHT22;2549;52.128;21.068;2023-06-22T09:41:25;26.70;96.20
5061;DHT22;2549;52.128;21.068;2023-06-22T09:43:52;26.70;95.90
5061;DHT22;2549;52.128;21.068;2023-06-22T09:46:23;26.70;96.40
5061;DHT22;2549;52.128;21.068;2023-06-22T09:48:52;26.70;96.50
5061;DHT22;2549;52.128;21.068;2023-06-22T09:51:19;26.70;96.70
5061;DHT22;2549;52.128;21.068;2023-06-22T09:53:48;26.80;96.40
5061;DHT22;2549;52.128;21.068;2023-06-22T09:56:14;26.80;96.20
5061;DHT22;2549;52.128;21.068;2023-06-22T09:58:42;26.80;96.40
5061;DHT22;2549;52.128;21.068;2023-06-22T10:01:10;26.80;96.40
5061;DHT22;2549;52.128;21.068;2023-06-22T10:03:37;26.80;96.50
5061;DHT22;2549;52.128;21.068;2023-06-22T10:06:04;26.80;94.30
5061;DHT22;2549;52.128;21.068;2023-06-22T10:08:31;26.90;94.50
5061;DHT22;2549;52.128;21.068;2023-06-22T10:10:58;26.90;94.10
5061;DHT22;2549;52.128;21.068;2023-06-22T10:13:25;27.00;93.70
5061;DHT22;2549;52.128;21.068;2023-06-22T10:15:52;27.00;93.70
5061;DHT22;2549;52.128;21.068;2023-06-22T10:18:19;27.00;94.00
5061;DHT22;2549;52.128;21.068;2023-06-22T10:20:50;27.10;93.90
5061;DHT22;2549;52.128;21.068;2023-06-22T10:23:21;27.10;93.70
5061;DHT22;2549;52.128;21.068;2023-06-22T10:25:48;27.20;94.40
5061;DHT22;2549;52.128;21.068;2023-06-22T10:28:15;27.20;94.50
5061;DHT22;2549;52.128;21.068;2023-06-22T10:30:42;27.20;94.90
5061;DHT22;2549;52.128;21.068;2023-06-22T10:33:10;27.30;94.60
5061;DHT22;2549;52.128;21.068;2023-06-22T10:35:38;27.30;94.20
5061;DHT22;2549;52.128;21.068;2023-06-22T10:38:05;27.30;94.10
5061;DHT22;2549;52.128;21.068;2023-06-22T10:40:32;27.30;94.70
5061;DHT22;2549;52.128;21.068;2023-06-22T10:42:59;27.40;95.00
5061;DHT22;2549;52.128;21.068;2023-06-22T10:45:26;27.40;94.60
5061;DHT22;2549;52.128;21.068;2023-06-22T10:47:54;27.50;95.10
5061;DHT22;2549;52.128;21.068;2023-06-22T10:50:21;27.40;95.00
5061;DHT22;2549;52.128;21.068;2023-06-22T10:52:50;27.50;95.10
5061;DHT22;2549;52.128;21.068;2023-06-22T10:55:17;27.50;95.10
5061;DHT22;2549;52.128;21.068;2023-06-22T10:57:44;27.50;95.00
5061;DHT22;2549;52.128;21.068;2023-06-22T11:00:14;27.50;95.10
5061;DHT22;2549;52.128;21.068;2023-06-22T11:02:42;27.60;95.20
5061;DHT22;2549;52.128;21.068;2023-06-22T11:05:10;27.60;95.40
5061;DHT22;2549;52.128;21.068;2023-06-22T11:07:40;27.70;95.50
5061;DHT22;2549;52.128;21.068;2023-06-22T11:10:07;27.70;95.40
5061;DHT22;2549;52.128;21.068;2023-06-22T11:12:35;27.80;95.90
5061;DHT22;2549;52.128;21.068;2023-06-22T11:15:02;27.80;95.20
5061;DHT22;2549;52.128;21.068;2023-06-22T11:17:28;27.80;95.00
5061;DHT22;2549;52.128;21.068;2023-06-22T11:19:55;27.80;94.90
5061;DHT22;2549;52.128;21.068;2023-06-22T11:22:22;27.80;94.00
5061;DHT22;2549;52.128;21.068;2023-06-22T11:24:49;27.90;93.30
5061;DHT22;2549;52.128;21.068;2023-06-22T11:27:16;27.90;94.30
5061;DHT22;2549;52.128;21.068;2023-06-22T11:29:43;27.90;93.90
5061;DHT22;2549;52.128;21.068;2023-06-22T11:32:10;28.00;93.00
5061;DHT22;2549;52.128;21.068;2023-06-22T11:34:40;28.00;92.20
5061;DHT22;2549;52.128;21.068;2023-06-22T11:37:07;28.00;92.70
5061;DHT22;2549;52.128;21.068;2023-06-22T11:39:33;28.10;92.50
5061;DHT22;2549;52.128;21.068;2023-06-22T11:42:09;28.20;92.70
5061;DHT22;2549;52.128;21.068;2023-06-22T11:44:36;28.10;92.80
5061;DHT22;2549;52.128;21.068;2023-06-22T11:47:03;28.20;92.80
5061;DHT22;2549;52.128;21.068;2023-06-22T11:49:31;28.20;93.00
5061;DHT22;2549;52.128;21.068;2023-06-22T11:51:58;28.20;93.10
5061;DHT22;2549;52.128;21.068;2023-06-22T11:54:25;28.20;93.40
5061;DHT22;2549;52.128;21.068;2023-06-22T11:56:51;28.10;93.40
5061;DHT22;2549;52.128;21.068;2023-06-22T11:59:18;28.20;92.80
5061;DHT22;2549;52.128;21.068;2023-06-22T12:01:46;28.20;93.10
5061;DHT22;2549;52.128;21.068;2023-06-22T12:04:13;28.30;93.00
5061;DHT22;2549;52.128;21.068;2023-06-22T12:06:40;28.30;93.40
5061;DHT22;2549;52.128;21.068;2023-06-22T12:09:09;28.40;93.30
5061;DHT22;2549;52.128;21.068;2023-06-22T12:11:36;28.50;93.10
5061;DHT22;2549;52.128;21.068;2023-06-22T12:14:04;28.50;93.70
5061;DHT22;2549;52.128;21.068;2023-06-22T12:16:31;28.50;92.80
5061;DHT22;2549;52.128;21.068;2023-06-22T12:18:58;28.50;92.80
5061;DHT22;2549;52.128;21.068;2023-06-22T12:21:24;28.50;92.90
5061;DHT22;2549;52.128;21.068;2023-06-22T12:23:51;28.60;92.10
5061;DHT22;2549;52.128;21.068;2023-06-22T12:26:18;28.60;92.00
5061;DHT22;2549;52.128;21.068;2023-06-22T12:28:45;28.60;91.10
5061;DHT22;2549;52.128;21.068;2023-06-22T12:31:12;28.60;90.60
5061;DHT22;2549;52.128;21.068;2023-06-22T12:33:39;28.60;91.00
5061;DHT22;2549;52.128;21.068;2023-06-22T12:36:06;28.60;91.20
5061;DHT22;2549;52.128;21.068;2023-06-22T12:38:33;28.60;91.30
5061;DHT22;2549;52.128;21.068;2023-06-22T12:41:00;28.60;90.60
5061;DHT22;2549;52.128;21.068;2023-06-22T12:43:27;28.60;91.30
5061;DHT22;2549;52.128;21.068;2023-06-22T12:45:54;28.60;90.90
5061;DHT22;2549;52.128;21.068;2023-06-22T12:48:22;28.70;90.10
5061;DHT22;2549;52.128;21.068;2023-06-22T12:50:49;28.70;89.60
5061;DHT22;2549;52.128;21.068;2023-06-22T12:53:16;28.70;90.00
5061;DHT22;2549;52.128;21.068;2023-06-22T12:55:42;28.80;89.90
5061;DHT22;2549;52.128;21.068;2023-06-22T12:58:09;28.80;89.70
5061;DHT22;2549;52.128;21.068;2023-06-22T13:00:37;28.80;89.60
5061;DHT22;2549;52.128;21.068;2023-06-22T13:03:04;28.90;89.70
5061;DHT22;2549;52.128;21.068;2023-06-22T13:05:31;28.90;90.00
5061;DHT22;2549;52.128;21.068;2023-06-22T13:07:58;29.00;90.10
5061;DHT22;2549;52.128;21.068;2023-06-22T13:10:24;29.10;90.00
5061;DHT22;2549;52.128;21.068;2023-06-22T13:12:51;29.10;90.20
5061;DHT22;2549;52.128;21.068;2023-06-22T13:15:21;29.10;89.50
5061;DHT22;2549;52.128;21.068;2023-06-22T13:17:48;29.10;87.80
5061;DHT22;2549;52.128;21.068;2023-06-22T13:20:15;29.10;87.10
5061;DHT22;2549;52.128;21.068;2023-06-22T13:22:42;29.10;86.30
5061;DHT22;2549;52.128;21.068;2023-06-22T13:25:10;29.10;86.00
5061;DHT22;2549;52.128;21.068;2023-06-22T13:27:42;29.10;86.00
5061;DHT22;2549;52.128;21.068;2023-06-22T13:30:09;29.10;87.50
5061;DHT22;2549;52.128;21.068;2023-06-22T13:32:40;29.20;85.20
5061;DHT22;2549;52.128;21.068;2023-06-22T13:35:11;29.20;84.00
5061;DHT22;2549;52.128;21.068;2023-06-22T13:37:38;29.30;84.60
5061;DHT22;2549;52.128;21.068;2023-06-22T13:40:06;29.30;84.00
5061;DHT22;2549;52.128;21.068;2023-06-22T13:42:34;29.50;83.60
5061;DHT22;2549;52.128;21.068;2023-06-22T13:45:01;29.50;84.80
5061;DHT22;2549;52.128;21.068;2023-06-22T13:47:29;29.60;84.40
5061;DHT22;2549;52.128;21.068;2023-06-22T13:49:57;29.50;82.80
5061;DHT22;2549;52.128;21.068;2023-06-22T13:52:24;29.60;83.10
5061;DHT22;2549;52.128;21.068;2023-06-22T13:54:52;29.50;82.80
5061;DHT22;2549;52.128;21.068;2023-06-22T13:57:18;29.50;82.90
5061;DHT22;2549;52.128;21.068;2023-06-22T13:59:45;29.60;83.10
5061;DHT22;2549;52.128;21.068;2023-06-22T14:02:12;29.60;83.30
5061;DHT22;2549;52.128;21.068;2023-06-22T14:04:39;29.60;81.90
5061;DHT22;2549;52.128;21.068;2023-06-22T14:07:06;29.70;81.30
5061;DHT22;2549;52.128;21.068;2023-06-22T14:09:33;29.70;79.90
5061;DHT22;2549;52.128;21.068;2023-06-22T14:12:07;29.70;79.60
5061;DHT22;2549;52.128;21.068;2023-06-22T14:14:34;29.70;80.30
5061;DHT22;2549;52.128;21.068;2023-06-22T14:17:00;29.70;80.20
5061;DHT22;2549;52.128;21.068;2023-06-22T14:19:27;29.70;80.90
5061;DHT22;2549;52.128;21.068;2023-06-22T14:21:54;29.80;80.30
5061;DHT22;2549;52.128;21.068;2023-06-22T14:24:21;29.80;79.60
5061;DHT22;2549;52.128;21.068;2023-06-22T14:26:51;29.90;80.80
5061;DHT22;2549;52.128;21.068;2023-06-22T14:29:18;29.90;79.70
5061;DHT22;2549;52.128;21.068;2023-06-22T14:31:46;29.90;79.80
5061;DHT22;2549;52.128;21.068;2023-06-22T14:34:14;29.90;78.90
5061;DHT22;2549;52.128;21.068;2023-06-22T14:36:42;29.90;78.80
5061;DHT22;2549;52.128;21.068;2023-06-22T14:39:09;30.00;79.70
5061;DHT22;2549;52.128;21.068;2023-06-22T14:41:36;30.00;78.20
5061;DHT22;2549;52.128;21.068;2023-06-22T14:44:03;30.00;77.70
5061;DHT22;2549;52.128;21.068;2023-06-22T14:46:30;30.00;78.40
5061;DHT22;2549;52.128;21.068;2023-06-22T14:48:57;30.00;79.10
5061;DHT22;2549;52.128;21.068;2023-06-22T14:51:24;30.00;79.10
5061;DHT22;2549;52.128;21.068;2023-06-22T14:53:51;30.00;79.40
5061;DHT22;2549;52.128;21.068;2023-06-22T14:56:18;30.00;79.40
5061;DHT22;2549;52.128;21.068;2023-06-22T14:58:45;30.00;80.10
5061;DHT22;2549;52.128;21.068;2023-06-22T15:01:14;30.00;80.30
5061;DHT22;2549;52.128;21.068;2023-06-22T15:03:41;30.00;80.90
5061;DHT22;2549;52.128;21.068;2023-06-22T15:06:09;30.00;81.70
5061;DHT22;2549;52.128;21.068;2023-06-22T15:08:40;30.00;81.70
5061;DHT22;2549;52.128;21.068;2023-06-22T15:11:07;29.90;81.60
5061;DHT22;2549;52.128;21.068;2023-06-22T15:13:35;29.90;81.60
5061;DHT22;2549;52.128;21.068;2023-06-22T15:16:04;29.80;81.60
5061;DHT22;2549;52.128;21.068;2023-06-22T15:18:32;29.80;81.00
5061;DHT22;2549;52.128;21.068;2023-06-22T15:21:03;29.70;81.60
5061;DHT22;2549;52.128;21.068;2023-06-22T15:23:31;29.70;82.10
5061;DHT22;2549;52.128;21.068;2023-06-22T15:26:00;29.60;81.90
5061;DHT22;2549;52.128;21.068;2023-06-22T15:28:28;29.60;81.80
5061;DHT22;2549;52.128;21.068;2023-06-22T15:30:55;29.60;81.10
5061;DHT22;2549;52.128;21.068;2023-06-22T15:33:22;29.70;81.20
5061;DHT22;2549;52.128;21.068;2023-06-22T15:35:50;29.70;80.10
5061;DHT22;2549;52.128;21.068;2023-06-22T15:38:19;29.70;80.30
5061;DHT22;2549;52.128;21.068;2023-06-22T15:40:46;29.70;79.80
5061;DHT22;2549;52.128;21.068;2023-06-22T15:43:13;29.80;79.70
5061;DHT22;2549;52.128;21.068;2023-06-22T15:45:40;29.80;80.40
5061;DHT22;2549;52.128;21.068;2023-06-22T15:48:07;29.80;79.30
5061;DHT22;2549;52.128;21.068;2023-06-22T15:50:34;29.80;80.00